createdAt,value
2022-09-14T00:00:12.991Z,4.17
2022-09-14T00:02:41.802Z,4.47
2022-09-14T00:05:10.862Z,5.57
2022-09-14T00:07:39.299Z,4.90
2022-09-14T00:10:09.050Z,4.73
2022-09-14T00:12:37.551Z,4.70
2022-09-14T00:15:07.518Z,4.83
2022-09-14T00:17:37.425Z,5.13
2022-09-14T00:20:18.096Z,5.10
2022-09-14T00:22:46.573Z,5.87
2022-09-14T00:25:15.195Z,5.00
2022-09-14T00:27:43.669Z,5.10
2022-09-14T00:30:21.315Z,6.40
2022-09-14T00:32:51.875Z,4.90
2022-09-14T00:35:20.661Z,5.00
2022-09-14T00:37:52.552Z,4.97
2022-09-14T00:40:21.333Z,5.10
2022-09-14T00:42:49.884Z,5.40
2022-09-14T00:45:22.258Z,5.40
2022-09-14T00:47:56.798Z,5.50
2022-09-14T00:50:26.015Z,6.27
2022-09-14T00:52:55.517Z,5.27
2022-09-14T00:55:25.228Z,5.43
2022-09-14T00:57:55.511Z,5.47
2022-09-14T01:00:27.038Z,5.27
2022-09-14T01:02:57.667Z,6.00
2022-09-14T01:05:46.260Z,5.43
2022-09-14T01:08:42.083Z,5.43
2022-09-14T01:11:51.511Z,5.60
2022-09-14T01:14:35.265Z,5.37
2022-09-14T01:17:13.629Z,6.27
2022-09-14T01:20:27.073Z,6.60
2022-09-14T01:23:10.140Z,6.40
2022-09-14T01:26:34.382Z,5.53
2022-09-14T01:29:13.464Z,5.53
2022-09-14T01:31:52.201Z,5.87
2022-09-14T01:34:32.793Z,5.30
2022-09-14T01:37:13.063Z,5.40
2022-09-14T01:39:47.296Z,6.00
2022-09-14T01:42:43.528Z,5.47
2022-09-14T01:45:19.285Z,5.50
2022-09-14T01:47:55.412Z,5.90
2022-09-14T01:50:28.400Z,5.50
2022-09-14T01:53:04.181Z,5.53
2022-09-14T01:55:41.211Z,5.60
2022-09-14T01:58:15.797Z,5.60
2022-09-14T02:00:48.762Z,5.60
2022-09-14T02:03:23.326Z,5.57
2022-09-14T02:06:00.700Z,5.73
2022-09-14T02:08:33.267Z,6.67
2022-09-14T02:11:02.935Z,5.37
2022-09-14T02:13:31.987Z,4.97
2022-09-14T02:16:02.328Z,5.40
2022-09-14T02:18:31.191Z,4.90
2022-09-14T02:21:06.117Z,6.33
2022-09-14T02:23:37.461Z,5.80
2022-09-14T02:26:06.767Z,5.63
2022-09-14T02:28:35.490Z,5.50
2022-09-14T02:31:21.588Z,5.40
2022-09-14T02:34:03.264Z,5.50
2022-09-14T02:36:48.250Z,5.90
2022-09-14T02:39:28.135Z,5.67
2022-09-14T02:42:09.767Z,6.23
2022-09-14T02:44:58.841Z,5.03
2022-09-14T02:47:44.805Z,5.77
2022-09-14T02:50:27.950Z,6.33
2022-09-14T02:53:10.737Z,6.90
2022-09-14T02:55:46.323Z,5.50
2022-09-14T02:58:16.327Z,6.10
2022-09-14T03:01:12.847Z,5.17
2022-09-14T03:03:43.069Z,6.03
2022-09-14T03:06:11.823Z,6.80
2022-09-14T03:08:41.991Z,6.50
2022-09-14T03:11:10.861Z,6.27
2022-09-14T03:13:40.180Z,5.90
2022-09-14T03:16:10.422Z,6.10
2022-09-14T03:18:40.279Z,5.50
2022-09-14T03:21:13.652Z,6.37
2022-09-14T03:23:45.038Z,6.73
2022-09-14T03:26:16.624Z,6.30
2022-09-14T03:28:45.724Z,5.43
2022-09-14T03:31:14.702Z,5.63
2022-09-14T03:33:43.819Z,6.10
2022-09-14T03:36:40.195Z,5.87
2022-09-14T03:39:09.416Z,5.43
2022-09-14T03:41:38.196Z,6.13
2022-09-14T03:44:07.059Z,5.77
2022-09-14T03:46:36.068Z,5.83
2022-09-14T03:49:05.056Z,5.80
2022-09-14T03:51:36.003Z,4.87
2022-09-14T03:54:06.619Z,5.70
2022-09-14T03:56:35.952Z,5.80
2022-09-14T03:59:05.277Z,6.33
2022-09-14T04:01:35.019Z,5.30
2022-09-14T04:04:04.317Z,8.53
2022-09-14T04:07:07.864Z,6.47
2022-09-14T04:09:38.985Z,10.63
2022-09-14T04:12:08.794Z,8.47
2022-09-14T04:14:37.956Z,9.53
2022-09-14T04:17:07.158Z,8.60
2022-09-14T04:19:37.777Z,7.33
2022-09-14T04:22:06.690Z,7.00
2022-09-14T04:24:36.493Z,6.07
2022-09-14T04:27:06.737Z,7.60
2022-09-14T04:29:36.026Z,5.83
2022-09-14T04:32:05.471Z,6.50
2022-09-14T04:34:34.150Z,5.67
2022-09-14T04:37:02.960Z,6.60
2022-09-14T04:39:31.650Z,7.73
2022-09-14T04:42:00.136Z,8.10
2022-09-14T04:44:29.957Z,5.77
2022-09-14T04:46:58.539Z,6.50
2022-09-14T04:49:27.130Z,6.07
2022-09-14T04:51:55.592Z,7.00
2022-09-14T04:54:24.069Z,6.93
2022-09-14T04:56:52.591Z,7.70
2022-09-14T04:59:21.121Z,9.50
2022-09-14T05:01:52.219Z,6.97
2022-09-14T05:04:20.717Z,6.67
2022-09-14T05:06:50.210Z,9.03
2022-09-14T05:09:20.105Z,6.97
2022-09-14T05:11:49.697Z,7.60
2022-09-14T05:14:18.230Z,10.17
2022-09-14T05:16:48.027Z,7.57
2022-09-14T05:19:19.323Z,15.47
2022-09-14T05:21:48.572Z,7.33
2022-09-14T05:24:19.714Z,9.00
2022-09-14T05:26:48.796Z,8.23
2022-09-14T05:29:20.890Z,8.83
2022-09-14T05:31:49.517Z,8.50
2022-09-14T05:34:19.555Z,7.77
2022-09-14T05:36:48.066Z,13.47
2022-09-14T05:39:21.035Z,11.97
2022-09-14T05:41:51.970Z,8.83
2022-09-14T05:44:20.473Z,9.47
2022-09-14T05:46:48.990Z,8.63
2022-09-14T05:49:18.982Z,17.90
2022-09-14T05:51:47.735Z,9.90
2022-09-14T05:54:16.202Z,8.57
2022-09-14T05:56:44.647Z,8.43
2022-09-14T05:59:13.288Z,9.27
2022-09-14T06:01:41.855Z,7.83
2022-09-14T06:04:12.829Z,7.13
2022-09-14T06:06:52.103Z,7.53
2022-09-14T06:09:33.247Z,6.73
2022-09-14T06:12:01.928Z,7.20
2022-09-14T06:14:30.674Z,6.80
2022-09-14T06:17:00.791Z,9.93
2022-09-14T06:19:29.270Z,6.40
2022-09-14T06:21:59.241Z,23.10
2022-09-14T06:24:27.694Z,6.70
2022-09-14T06:26:56.156Z,10.40
2022-09-14T06:29:24.683Z,6.77
2022-09-14T06:31:55.172Z,8.13
2022-09-14T06:34:23.595Z,6.63
2022-09-14T06:36:52.037Z,6.33
2022-09-14T06:39:21.845Z,8.97
2022-09-14T06:41:51.982Z,7.47
2022-09-14T06:44:20.976Z,9.83
2022-09-14T06:46:49.455Z,7.67
2022-09-14T06:49:20.810Z,6.87
2022-09-14T07:29:02.185Z,5.00
2022-09-14T07:31:33.968Z,4.60
2022-09-14T07:34:05.266Z,6.23
2022-09-14T07:36:37.060Z,4.43
2022-09-14T07:39:07.985Z,5.00
2022-09-14T07:41:37.463Z,5.43
2022-09-14T07:44:09.518Z,6.13
2022-09-14T07:46:41.221Z,4.30
2022-09-14T07:49:12.040Z,7.13
2022-09-14T07:51:41.357Z,8.17
2022-09-14T07:54:14.190Z,7.80
2022-09-14T07:56:43.519Z,5.13
2022-09-14T08:02:07.403Z,5.40
2022-09-14T08:04:36.859Z,4.03
2022-09-14T08:07:05.780Z,6.13
2022-09-14T08:09:34.536Z,4.67
2022-09-14T08:12:06.320Z,5.10
2022-09-14T08:14:37.039Z,7.77
2022-09-14T08:17:05.981Z,6.37
2022-09-14T08:19:35.361Z,7.23
2022-09-14T08:22:04.550Z,4.10
2022-09-14T08:24:33.576Z,4.40
2022-09-14T08:27:02.510Z,7.10
2022-09-14T08:29:31.249Z,6.83
2022-09-14T08:32:01.641Z,7.07
2022-09-14T08:34:33.035Z,4.50
2022-09-14T08:37:02.160Z,6.37
2022-09-14T08:39:31.025Z,4.20
2022-09-14T08:42:02.023Z,7.07
2022-09-14T08:44:37.044Z,4.53
2022-09-14T08:47:13.864Z,6.23
2022-09-14T08:49:49.892Z,8.50
2022-09-14T08:52:26.848Z,5.40
2022-09-14T08:54:57.939Z,3.93
2022-09-14T08:57:35.805Z,6.70
2022-09-14T09:00:12.495Z,5.97
2022-09-14T09:03:31.472Z,5.40
2022-09-14T09:06:16.218Z,3.80
2022-09-14T09:08:58.802Z,3.93
2022-09-14T09:11:37.624Z,4.50
2022-09-14T09:14:20.310Z,4.37
2022-09-14T09:16:55.276Z,5.07
2022-09-14T09:19:32.093Z,3.50
2022-09-14T09:22:05.073Z,5.10
2022-09-14T09:24:41.633Z,4.50
2022-09-14T09:27:13.388Z,2.60
2022-09-14T09:29:43.168Z,3.17
2022-09-14T09:32:18.456Z,2.40
2022-09-14T09:34:49.174Z,2.37
2022-09-14T09:37:20.926Z,2.50
2022-09-14T09:39:50.557Z,2.87
2022-09-14T09:42:25.046Z,2.80
2022-09-14T09:45:04.026Z,2.13
2022-09-14T09:47:37.100Z,2.40
2022-09-14T09:50:22.021Z,4.03
2022-09-14T09:52:53.946Z,2.77
2022-09-14T09:55:26.637Z,2.90
2022-09-14T09:57:56.216Z,2.63
2022-09-14T10:00:28.196Z,5.50
2022-09-14T10:02:58.297Z,2.20
2022-09-14T10:05:32.452Z,2.17
2022-09-14T10:08:06.918Z,2.40
2022-09-14T10:10:45.074Z,1.93
2022-09-14T10:13:29.413Z,2.70
2022-09-14T10:16:23.626Z,4.13
2022-09-14T10:18:54.751Z,2.50
2022-09-14T10:21:27.131Z,2.20
2022-09-14T10:24:08.612Z,3.13
2022-09-14T10:26:38.624Z,2.10
2022-09-14T10:29:41.479Z,2.37
2022-09-14T10:32:23.930Z,1.87
2022-09-14T10:34:52.631Z,2.70
2022-09-14T10:37:47.462Z,2.07
2022-09-14T10:40:21.170Z,1.90
2022-09-14T10:43:10.563Z,2.80
2022-09-14T10:45:44.333Z,3.50
2022-09-14T10:48:58.447Z,2.23
2022-09-14T10:51:44.757Z,2.03
2022-09-14T10:54:45.654Z,3.10
2022-09-14T10:57:26.603Z,2.43
2022-09-14T11:00:02.068Z,4.47
2022-09-14T11:03:15.562Z,1.93
2022-09-14T11:05:58.264Z,1.93
2022-09-14T11:08:34.069Z,7.33
2022-09-14T11:11:31.523Z,5.07
2022-09-14T11:14:21.212Z,2.77
2022-09-14T11:56:26.908Z,2.43
2022-09-14T11:58:59.383Z,3.27
2022-09-14T12:01:38.140Z,2.83
2022-09-14T12:04:16.991Z,2.90
2022-09-14T12:06:58.465Z,1.90
2022-09-14T12:09:55.502Z,2.60
2022-09-14T12:12:36.535Z,4.03
2022-09-14T12:15:21.939Z,1.90
2022-09-14T12:17:51.859Z,1.80
2022-09-14T12:20:39.140Z,1.97
2022-09-14T12:23:32.129Z,2.60
2022-09-14T12:26:16.204Z,1.50
2022-09-14T12:28:50.630Z,1.57
2022-09-14T12:32:06.164Z,1.70
2022-09-14T12:34:35.409Z,1.57
2022-09-14T12:37:37.307Z,1.80
2022-09-14T12:40:39.260Z,2.00
2022-09-14T12:43:53.029Z,1.60
2022-09-14T12:46:42.275Z,1.50
2022-09-14T12:49:36.869Z,3.30
2022-09-14T12:52:29.064Z,1.77
2022-09-14T12:55:19.380Z,2.33
2022-09-14T12:57:58.051Z,2.33
2022-09-14T13:00:29.050Z,1.63
2022-09-14T13:03:35.079Z,1.88
2022-09-14T13:06:05.383Z,1.70
2022-09-14T13:08:34.649Z,2.83
2022-09-14T13:11:03.343Z,1.60
2022-09-14T13:13:34.971Z,3.70
2022-09-14T13:16:08.617Z,1.60
2022-09-14T13:18:40.034Z,2.25
2022-09-14T13:21:22.024Z,1.63
2022-09-14T13:23:51.007Z,2.55
2022-09-14T13:26:34.398Z,1.77
2022-09-14T13:29:04.254Z,1.92
2022-09-14T13:31:36.942Z,1.98
2022-09-14T13:34:08.858Z,1.60
2022-09-14T13:36:44.105Z,3.03
2022-09-14T13:39:28.835Z,1.63
2022-09-14T13:41:59.316Z,1.77
2022-09-14T13:44:55.056Z,2.20
2022-09-14T13:47:27.034Z,2.60
2022-09-14T13:49:58.443Z,1.67
2022-09-14T13:55:30.278Z,3.45
2022-09-14T13:58:21.626Z,1.58
2022-09-14T14:00:55.475Z,2.30
2022-09-14T14:03:35.383Z,1.50
2022-09-14T14:06:23.922Z,2.08
2022-09-14T14:09:01.426Z,2.83
2022-09-14T14:11:36.395Z,3.20
2022-09-14T14:14:22.547Z,1.97
2022-09-14T14:17:25.589Z,1.83
2022-09-14T14:19:56.496Z,3.93
2022-09-14T14:22:33.243Z,2.30
2022-09-14T14:25:18.845Z,1.60
2022-09-14T14:27:49.549Z,2.25
2022-09-14T14:30:22.136Z,2.75
2022-09-14T14:32:52.678Z,3.17
2022-09-14T14:35:24.449Z,2.40
2022-09-14T14:37:54.672Z,1.53
2022-09-14T14:40:24.098Z,4.20
2022-09-14T14:42:54.217Z,2.67
2022-09-14T14:45:26.922Z,3.78
2022-09-14T14:47:57.335Z,2.70
2022-09-14T14:50:30.193Z,2.90
2022-09-14T14:53:00.745Z,2.20
2022-09-14T14:55:31.868Z,3.70
2022-09-14T14:58:04.604Z,2.78
2022-09-14T15:00:36.790Z,3.40
2022-09-14T15:03:06.275Z,4.38
2022-09-14T15:05:35.095Z,1.63
2022-09-14T15:08:05.236Z,2.63
2022-09-14T15:10:34.427Z,1.73
2022-09-14T15:13:02.937Z,3.33
2022-09-14T15:15:31.508Z,1.58
2022-09-14T15:18:00.302Z,2.78
2022-09-14T15:20:29.276Z,2.03
2022-09-14T15:22:58.419Z,1.97
2022-09-14T15:25:28.469Z,1.90
2022-09-14T15:27:57.085Z,1.70
2022-09-14T15:30:25.977Z,3.15
2022-09-14T15:32:54.643Z,3.05
2022-09-14T15:35:23.366Z,2.83
2022-09-14T15:37:51.985Z,2.20
2022-09-14T15:40:20.552Z,2.00
2022-09-14T15:42:50.721Z,3.43
2022-09-14T15:45:19.727Z,1.80
2022-09-14T15:47:48.422Z,2.47
2022-09-14T15:50:17.545Z,1.50
2022-09-14T15:52:46.060Z,2.23
2022-09-14T15:55:14.914Z,4.07
2022-09-14T15:57:43.593Z,1.87
2022-09-14T16:00:15.829Z,4.77
2022-09-14T16:02:44.467Z,2.57
2022-09-14T16:05:14.691Z,2.93
2022-09-14T16:07:43.524Z,4.13
2022-09-14T16:10:12.196Z,1.47
2022-09-14T16:12:40.931Z,2.53
2022-09-14T16:15:11.099Z,2.53
2022-09-14T16:17:43.416Z,2.77
2022-09-14T16:20:12.236Z,3.90
2022-09-14T16:22:41.143Z,4.93
2022-09-14T16:25:09.844Z,2.97
2022-09-14T16:27:38.562Z,1.63
2022-09-14T16:30:09.369Z,3.17
2022-09-14T16:32:37.968Z,5.00
2022-09-14T16:35:32.965Z,2.97
2022-09-14T16:38:01.547Z,4.67
2022-09-14T16:40:31.722Z,3.70
2022-09-14T16:43:00.403Z,2.43
2022-09-14T16:45:29.159Z,2.13
2022-09-14T16:47:58.019Z,1.83
2022-09-14T16:50:26.779Z,2.03
2022-09-14T16:52:57.065Z,2.90
2022-09-14T16:55:25.723Z,6.27
2022-09-14T16:57:54.212Z,4.07
2022-09-14T17:00:22.840Z,6.87
2022-09-14T17:02:53.447Z,6.20
2022-09-14T17:05:22.072Z,5.97
2022-09-14T17:07:58.051Z,5.80
2022-09-14T17:10:26.731Z,5.17
2022-09-14T17:12:55.417Z,9.23
2022-09-14T17:15:26.996Z,4.80
2022-09-14T17:17:57.535Z,2.30
2022-09-14T17:20:26.093Z,6.70
2022-09-14T17:22:54.906Z,5.63
2022-09-14T17:25:25.331Z,7.47
2022-09-14T17:27:54.941Z,4.07
2022-09-14T17:30:23.755Z,5.47
2022-09-14T17:32:52.366Z,2.80
2022-09-14T17:35:47.930Z,5.70
2022-09-14T17:38:17.266Z,3.97
2022-09-14T17:40:47.993Z,4.90
2022-09-14T17:43:19.243Z,6.53
2022-09-14T17:45:55.200Z,5.37
2022-09-14T17:48:25.632Z,4.97
2022-09-14T17:50:54.405Z,6.53
2022-09-14T17:53:23.908Z,7.30
2022-09-14T17:55:54.195Z,4.93
2022-09-14T17:58:22.941Z,4.47
2022-09-14T18:00:51.535Z,4.50
2022-09-14T18:03:20.311Z,6.93
2022-09-14T18:05:56.635Z,5.17
2022-09-14T18:08:25.393Z,5.83
2022-09-14T18:10:55.747Z,2.93
2022-09-14T18:13:33.908Z,3.97
2022-09-14T18:16:03.123Z,4.80
2022-09-14T18:18:32.103Z,5.97
2022-09-14T18:21:01.463Z,7.23
2022-09-14T18:23:34.680Z,3.17
2022-09-14T18:26:06.766Z,8.37
2022-09-14T18:28:37.364Z,6.93
2022-09-14T18:31:08.511Z,8.23
2022-09-14T18:33:37.873Z,3.93
2022-09-14T18:36:08.346Z,3.83
2022-09-14T18:38:37.327Z,4.70
2022-09-14T18:41:09.758Z,3.60
2022-09-14T18:43:39.288Z,3.63
2022-09-14T18:46:09.179Z,7.23
2022-09-14T18:48:38.825Z,3.90
2022-09-14T18:51:09.006Z,5.70
2022-09-14T18:53:38.147Z,4.23
2022-09-14T18:56:12.185Z,4.23
2022-09-14T18:58:43.969Z,4.37
2022-09-14T19:01:14.071Z,5.37
2022-09-14T19:03:44.514Z,5.03
2022-09-14T19:06:17.504Z,4.00
2022-09-14T19:08:47.010Z,3.47
2022-09-14T19:11:20.404Z,5.50
2022-09-14T19:13:51.143Z,8.67
2022-09-14T19:16:21.278Z,3.83
2022-09-14T19:18:51.167Z,7.23
2022-09-14T19:21:23.851Z,4.43
2022-09-14T19:24:00.779Z,3.90
2022-09-14T19:26:33.806Z,4.63
2022-09-14T19:29:03.933Z,7.53
2022-09-14T19:31:33.662Z,6.87
2022-09-14T19:34:04.817Z,6.43
2022-09-14T19:36:35.317Z,11.27
2022-09-14T19:39:05.883Z,5.80
2022-09-14T19:41:37.317Z,7.87
2022-09-14T19:44:08.340Z,6.67
2022-09-14T19:46:39.734Z,7.03
2022-09-14T19:49:11.273Z,5.63
2022-09-14T19:51:39.963Z,6.50
2022-09-14T19:54:08.906Z,5.53
2022-09-14T19:56:40.140Z,10.67
2022-09-14T19:59:09.900Z,5.00
2022-09-14T20:01:41.144Z,10.13
2022-09-14T20:04:11.847Z,6.57
2022-09-14T20:06:44.677Z,6.53
2022-09-14T20:09:16.599Z,9.40
2022-09-14T20:11:49.405Z,4.97
2022-09-14T20:14:21.579Z,4.40
2022-09-14T20:16:53.843Z,4.80
2022-09-14T20:19:47.829Z,5.40
2022-09-14T20:22:17.041Z,5.80
2022-09-14T20:24:45.934Z,10.97
2022-09-14T20:27:15.880Z,6.43
2022-09-14T20:29:44.583Z,3.20
2022-09-14T20:32:16.278Z,5.20
2022-09-14T20:34:47.390Z,5.87
2022-09-14T20:37:16.199Z,5.40
2022-09-14T20:39:45.096Z,3.90
2022-09-14T20:42:15.506Z,6.00
2022-09-14T20:44:44.548Z,8.00
2022-09-14T20:47:13.768Z,5.47
2022-09-14T20:49:42.331Z,4.73
2022-09-14T20:52:10.993Z,5.23
2022-09-14T20:54:39.734Z,4.93
2022-09-14T20:57:08.581Z,4.97
2022-09-14T20:59:38.978Z,5.80
2022-09-14T21:02:08.551Z,8.87
2022-09-14T21:04:37.618Z,2.47
2022-09-14T21:07:21.654Z,5.17
2022-09-14T21:09:50.633Z,4.33
2022-09-14T21:12:25.335Z,5.97
2022-09-14T21:14:55.396Z,5.00
2022-09-14T21:17:24.334Z,6.73
2022-09-14T21:19:53.055Z,4.53
2022-09-14T21:22:21.641Z,8.87
2022-09-14T21:24:50.319Z,5.63
2022-09-14T21:27:19.190Z,6.23
2022-09-14T21:29:48.317Z,8.97
2022-09-14T21:32:18.535Z,6.90
2022-09-14T21:34:47.183Z,4.20
2022-09-14T21:37:15.891Z,4.70
2022-09-14T21:39:44.997Z,7.40
2022-09-14T21:42:13.597Z,4.27
2022-09-14T21:44:42.355Z,2.83
2022-09-14T21:47:11.104Z,6.20
2022-09-14T21:49:41.433Z,5.10
2022-09-14T21:52:15.216Z,3.43
2022-09-14T21:54:43.691Z,2.83
2022-09-14T21:57:12.358Z,4.47
2022-09-14T21:59:41.368Z,4.77
2022-09-14T22:02:10.124Z,2.63
2022-09-14T22:04:40.112Z,6.83
2022-09-14T22:07:09.199Z,5.03
2022-09-14T22:09:38.025Z,7.67
2022-09-14T22:12:07.143Z,3.83
2022-09-14T22:15:00.227Z,4.57
2022-09-14T22:17:29.254Z,2.40
2022-09-14T22:20:00.769Z,4.07
2022-09-14T22:23:03.357Z,5.70
2022-09-14T22:25:33.151Z,3.63
2022-09-14T22:28:01.798Z,3.43
2022-09-14T22:30:30.676Z,4.27
2022-09-14T22:32:59.590Z,3.87
2022-09-14T22:35:29.882Z,6.10
2022-09-14T22:37:58.680Z,4.33
2022-09-14T22:40:27.458Z,4.20
2022-09-14T22:42:56.010Z,4.37
2022-09-14T22:45:24.534Z,3.97
2022-09-14T22:47:53.243Z,9.73
2022-09-14T22:50:21.760Z,3.97
2022-09-14T22:52:52.316Z,4.50
2022-09-14T22:55:21.595Z,3.03
2022-09-14T22:57:51.253Z,3.03
2022-09-14T23:00:20.366Z,3.47
2022-09-14T23:02:49.228Z,2.33
2022-09-14T23:05:19.777Z,2.50
2022-09-14T23:07:48.506Z,3.60
2022-09-14T23:10:18.828Z,3.13
2022-09-14T23:12:47.563Z,2.50
2022-09-14T23:15:16.598Z,3.07
2022-09-14T23:17:49.982Z,4.10
2022-09-14T23:20:46.508Z,4.10
2022-09-14T23:23:15.236Z,3.07
2022-09-14T23:25:45.772Z,4.53
2022-09-14T23:28:14.436Z,2.67
2022-09-14T23:30:43.351Z,3.93
2022-09-14T23:33:12.154Z,3.57
2022-09-14T23:35:40.852Z,3.70
2022-09-14T23:38:09.812Z,3.30
2022-09-14T23:40:38.569Z,6.23
2022-09-14T23:43:08.526Z,3.43
2022-09-14T23:45:37.522Z,3.00
2022-09-14T23:48:06.444Z,4.80
2022-09-14T23:50:35.259Z,3.37
2022-09-14T23:53:03.801Z,4.33
2022-09-14T23:55:32.703Z,2.83
2022-09-14T23:58:01.511Z,5.07
